sensor_id;sensor_type;location;lat;lon;timestamp;P1;P2;P0
73973;PMS5003;62336;-26.094;27.994;2022-12-18T00:01:37;6;5;
73973;PMS5003;62336;-26.094;27.994;2022-12-18T00:04:03;2;2;
73973;PMS5003;62336;-26.094;27.994;2022-12-18T00:06:29;6;5;
73973;PMS5003;62336;-26.094;27.994;2022-12-18T00:08:55;3;3;
73973;PMS5003;62336;-26.094;27.994;2022-12-18T00:11:22;4;4;
73973;PMS5003;62336;-26.094;27.994;2022-12-18T00:13:46;2;2;
73973;PMS5003;62336;-26.094;27.994;2022-12-18T02:26:59;7;7;
73973;PMS5003;62336;-26.094;27.994;2022-12-18T02:29:26;4;4;
73973;PMS5003;62336;-26.094;27.994;2022-12-18T02:31:56;11;8;
73973;PMS5003;62336;-26.094;27.994;2022-12-18T02:34:22;8;8;
73973;PMS5003;62336;-26.094;27.994;2022-12-18T02:36:42;9;7;
73973;PMS5003;62336;-26.094;27.994;2022-12-18T02:39:09;8;6;
73973;PMS5003;62336;-26.094;27.994;2022-12-18T02:41:33;6;5;
73973;PMS5003;62336;-26.094;27.994;2022-12-18T02:44:00;7;6;
73973;PMS5003;62336;-26.094;27.994;2022-12-18T02:46:28;3;3;
73973;PMS5003;62336;-26.094;27.994;2022-12-18T02:48:51;7;7;
73973;PMS5003;62336;-26.094;27.994;2022-12-18T02:51:17;6;5;
73973;PMS5003;62336;-26.094;27.994;2022-12-18T02:53:43;5;5;
73973;PMS5003;62336;-26.094;27.994;2022-12-18T02:56:09;7;6;
73973;PMS5003;62336;-26.094;27.994;2022-12-18T02:58:36;5;5;
73973;PMS5003;62336;-26.094;27.994;2022-12-18T03:01:01;7;6;
73973;PMS5003;62336;-26.094;27.994;2022-12-18T03:03:26;7;6;
73973;PMS5003;62336;-26.094;27.994;2022-12-18T03:05:51;8;7;
73973;PMS5003;62336;-26.094;27.994;2022-12-18T03:08:17;10;9;
73973;PMS5003;62336;-26.094;27.994;2022-12-18T03:10:42;10;10;
73973;PMS5003;62336;-26.094;27.994;2022-12-18T03:13:08;9;7;
73973;PMS5003;62336;-26.094;27.994;2022-12-18T03:15:35;8;8;
73973;PMS5003;62336;-26.094;27.994;2022-12-18T03:17:59;9;6;
73973;PMS5003;62336;-26.094;27.994;2022-12-18T03:20:24;9;9;
73973;PMS5003;62336;-26.094;27.994;2022-12-18T03:22:51;9;8;
73973;PMS5003;62336;-26.094;27.994;2022-12-18T03:25:16;9;9;
73973;PMS5003;62336;-26.094;27.994;2022-12-18T03:27:43;10;10;
73973;PMS5003;62336;-26.094;27.994;2022-12-18T03:30:08;10;9;
73973;PMS5003;62336;-26.094;27.994;2022-12-18T03:32:35;10;10;
73973;PMS5003;62336;-26.094;27.994;2022-12-18T03:35:01;11;10;
73973;PMS5003;62336;-26.094;27.994;2022-12-18T03:37:25;11;11;
73973;PMS5003;62336;-26.094;27.994;2022-12-18T03:39:51;14;13;
73973;PMS5003;62336;-26.094;27.994;2022-12-18T03:42:18;14;14;
73973;PMS5003;62336;-26.094;27.994;2022-12-18T03:44:43;13;11;
73973;PMS5003;62336;-26.094;27.994;2022-12-18T03:47:09;11;9;
73973;PMS5003;62336;-26.094;27.994;2022-12-18T03:49:34;14;13;
73973;PMS5003;62336;-26.094;27.994;2022-12-18T03:52:01;14;12;
73973;PMS5003;62336;-26.094;27.994;2022-12-18T03:54:25;27;22;
73973;PMS5003;62336;-26.094;27.994;2022-12-18T03:56:51;24;22;
73973;PMS5003;62336;-26.094;27.994;2022-12-18T03:59:16;16;15;
73973;PMS5003;62336;-26.094;27.994;2022-12-18T04:01:42;20;16;
73973;PMS5003;62336;-26.094;27.994;2022-12-18T04:04:08;29;22;
73973;PMS5003;62336;-26.094;27.994;2022-12-18T04:06:33;26;24;
73973;PMS5003;62336;-26.094;27.994;2022-12-18T04:08:58;30;24;
73973;PMS5003;62336;-26.094;27.994;2022-12-18T04:11:24;21;21;
73973;PMS5003;62336;-26.094;27.994;2022-12-18T04:13:49;22;20;
73973;PMS5003;62336;-26.094;27.994;2022-12-18T04:16:14;25;22;
73973;PMS5003;62336;-26.094;27.994;2022-12-18T04:18:39;21;20;
73973;PMS5003;62336;-26.094;27.994;2022-12-18T04:21:04;18;17;
73973;PMS5003;62336;-26.094;27.994;2022-12-18T04:23:30;18;17;
73973;PMS5003;62336;-26.094;27.994;2022-12-18T04:25:56;24;21;
73973;PMS5003;62336;-26.094;27.994;2022-12-18T04:28:21;24;23;
73973;PMS5003;62336;-26.094;27.994;2022-12-18T04:30:46;17;16;
73973;PMS5003;62336;-26.094;27.994;2022-12-18T04:33:12;13;13;
73973;PMS5003;62336;-26.094;27.994;2022-12-18T04:35:38;17;17;
73973;PMS5003;62336;-26.094;27.994;2022-12-18T04:38:03;18;15;
73973;PMS5003;62336;-26.094;27.994;2022-12-18T04:40:28;20;19;
73973;PMS5003;62336;-26.094;27.994;2022-12-18T04:42:54;21;20;
73973;PMS5003;62336;-26.094;27.994;2022-12-18T04:45:19;22;20;
73973;PMS5003;62336;-26.094;27.994;2022-12-18T04:47:44;20;18;
73973;PMS5003;62336;-26.094;27.994;2022-12-18T04:50:09;20;17;
73973;PMS5003;62336;-26.094;27.994;2022-12-18T04:52:34;19;18;
73973;PMS5003;62336;-26.094;27.994;2022-12-18T04:55:00;25;23;
73973;PMS5003;62336;-26.094;27.994;2022-12-18T04:57:26;17;16;
73973;PMS5003;62336;-26.094;27.994;2022-12-18T04:59:51;23;21;
73973;PMS5003;62336;-26.094;27.994;2022-12-18T05:02:17;22;20;
73973;PMS5003;62336;-26.094;27.994;2022-12-18T05:04:42;20;20;
73973;PMS5003;62336;-26.094;27.994;2022-12-18T05:07:07;20;20;
73973;PMS5003;62336;-26.094;27.994;2022-12-18T05:09:32;19;17;
73973;PMS5003;62336;-26.094;27.994;2022-12-18T05:11:58;26;23;
73973;PMS5003;62336;-26.094;27.994;2022-12-18T05:14:24;20;16;
73973;PMS5003;62336;-26.094;27.994;2022-12-18T05:16:49;20;18;
73973;PMS5003;62336;-26.094;27.994;2022-12-18T05:19:15;18;17;
73973;PMS5003;62336;-26.094;27.994;2022-12-18T05:21:41;17;17;
73973;PMS5003;62336;-26.094;27.994;2022-12-18T05:24:07;25;20;
73973;PMS5003;62336;-26.094;27.994;2022-12-18T05:26:32;16;16;
73973;PMS5003;62336;-26.094;27.994;2022-12-18T05:28:58;15;14;
73973;PMS5003;62336;-26.094;27.994;2022-12-18T05:31:24;19;19;
73973;PMS5003;62336;-26.094;27.994;2022-12-18T05:33:49;19;17;
73973;PMS5003;62336;-26.094;27.994;2022-12-18T05:36:15;15;15;
73973;PMS5003;62336;-26.094;27.994;2022-12-18T05:38:40;21;18;
73973;PMS5003;62336;-26.094;27.994;2022-12-18T05:41:06;20;18;
73973;PMS5003;62336;-26.094;27.994;2022-12-18T05:43:33;15;14;
73973;PMS5003;62336;-26.094;27.994;2022-12-18T05:45:57;15;14;
73973;PMS5003;62336;-26.094;27.994;2022-12-18T05:48:23;17;13;
73973;PMS5003;62336;-26.094;27.994;2022-12-18T05:50:49;15;13;
73973;PMS5003;62336;-26.094;27.994;2022-12-18T05:53:14;13;12;
73973;PMS5003;62336;-26.094;27.994;2022-12-18T05:55:39;14;14;
73973;PMS5003;62336;-26.094;27.994;2022-12-18T05:58:04;14;13;
73973;PMS5003;62336;-26.094;27.994;2022-12-18T06:00:29;14;13;
73973;PMS5003;62336;-26.094;27.994;2022-12-18T06:02:54;12;11;
73973;PMS5003;62336;-26.094;27.994;2022-12-18T06:05:21;11;10;
73973;PMS5003;62336;-26.094;27.994;2022-12-18T06:07:46;11;10;
73973;PMS5003;62336;-26.094;27.994;2022-12-18T06:10:12;12;11;
73973;PMS5003;62336;-26.094;27.994;2022-12-18T06:12:37;11;10;
73973;PMS5003;62336;-26.094;27.994;2022-12-18T06:15:03;17;17;
73973;PMS5003;62336;-26.094;27.994;2022-12-18T06:17:29;14;13;
73973;PMS5003;62336;-26.094;27.994;2022-12-18T06:19:54;12;11;
73973;PMS5003;62336;-26.094;27.994;2022-12-18T06:22:20;10;10;
73973;PMS5003;62336;-26.094;27.994;2022-12-18T06:24:46;10;10;
73973;PMS5003;62336;-26.094;27.994;2022-12-18T06:27:11;9;9;
73973;PMS5003;62336;-26.094;27.994;2022-12-18T06:29:36;11;11;
73973;PMS5003;62336;-26.094;27.994;2022-12-18T06:32:02;8;8;
73973;PMS5003;62336;-26.094;27.994;2022-12-18T06:34:28;8;6;
73973;PMS5003;62336;-26.094;27.994;2022-12-18T06:36:53;11;9;
73973;PMS5003;62336;-26.094;27.994;2022-12-18T06:39:19;7;6;
73973;PMS5003;62336;-26.094;27.994;2022-12-18T06:41:45;9;8;
73973;PMS5003;62336;-26.094;27.994;2022-12-18T06:44:10;8;8;
73973;PMS5003;62336;-26.094;27.994;2022-12-18T06:46:36;9;7;
73973;PMS5003;62336;-26.094;27.994;2022-12-18T06:49:02;7;7;
73973;PMS5003;62336;-26.094;27.994;2022-12-18T06:51:28;6;6;
73973;PMS5003;62336;-26.094;27.994;2022-12-18T06:53:54;6;6;
73973;PMS5003;62336;-26.094;27.994;2022-12-18T06:56:20;7;5;
73973;PMS5003;62336;-26.094;27.994;2022-12-18T06:58:45;5;5;
73973;PMS5003;62336;-26.094;27.994;2022-12-18T07:01:12;7;7;
73973;PMS5003;62336;-26.094;27.994;2022-12-18T07:03:37;3;3;
73973;PMS5003;62336;-26.094;27.994;2022-12-18T07:06:03;0;0;
73973;PMS5003;62336;-26.094;27.994;2022-12-18T07:08:28;2;2;
73973;PMS5003;62336;-26.094;27.994;2022-12-18T07:10:54;4;4;
73973;PMS5003;62336;-26.094;27.994;2022-12-18T07:13:20;2;2;
73973;PMS5003;62336;-26.094;27.994;2022-12-18T07:15:45;6;6;
73973;PMS5003;62336;-26.094;27.994;2022-12-18T07:18:11;5;5;
73973;PMS5003;62336;-26.094;27.994;2022-12-18T07:20:37;6;6;
73973;PMS5003;62336;-26.094;27.994;2022-12-18T07:23:03;5;5;
73973;PMS5003;62336;-26.094;27.994;2022-12-18T07:25:29;8;6;
73973;PMS5003;62336;-26.094;27.994;2022-12-18T07:27:54;7;6;
73973;PMS5003;62336;-26.094;27.994;2022-12-18T07:30:20;6;5;
73973;PMS5003;62336;-26.094;27.994;2022-12-18T07:32:45;5;5;
73973;PMS5003;62336;-26.094;27.994;2022-12-18T07:35:11;5;5;
73973;PMS5003;62336;-26.094;27.994;2022-12-18T07:37:37;5;5;
73973;PMS5003;62336;-26.094;27.994;2022-12-18T07:40:03;4;4;
73973;PMS5003;62336;-26.094;27.994;2022-12-18T07:42:28;7;6;
73973;PMS5003;62336;-26.094;27.994;2022-12-18T07:44:54;7;6;
73973;PMS5003;62336;-26.094;27.994;2022-12-18T07:47:20;4;4;
73973;PMS5003;62336;-26.094;27.994;2022-12-18T07:49:45;4;4;
73973;PMS5003;62336;-26.094;27.994;2022-12-18T07:52:11;5;4;
73973;PMS5003;62336;-26.094;27.994;2022-12-18T07:54:38;3;3;
73973;PMS5003;62336;-26.094;27.994;2022-12-18T07:57:03;5;5;
73973;PMS5003;62336;-26.094;27.994;2022-12-18T07:59:29;4;4;
73973;PMS5003;62336;-26.094;27.994;2022-12-18T08:01:55;2;1;
73973;PMS5003;62336;-26.094;27.994;2022-12-18T08:04:20;3;3;
73973;PMS5003;62336;-26.094;27.994;2022-12-18T08:06:46;3;3;
73973;PMS5003;62336;-26.094;27.994;2022-12-18T08:09:12;4;3;
73973;PMS5003;62336;-26.094;27.994;2022-12-18T08:12:12;6;6;
73973;PMS5003;62336;-26.094;27.994;2022-12-18T08:14:38;3;3;
73973;PMS5003;62336;-26.094;27.994;2022-12-18T08:17:03;6;5;
73973;PMS5003;62336;-26.094;27.994;2022-12-18T08:19:28;6;6;
73973;PMS5003;62336;-26.094;27.994;2022-12-18T08:21:54;11;10;
73973;PMS5003;62336;-26.094;27.994;2022-12-18T08:24:19;6;6;
73973;PMS5003;62336;-26.094;27.994;2022-12-18T08:26:44;8;7;
73973;PMS5003;62336;-26.094;27.994;2022-12-18T08:29:10;10;9;
73973;PMS5003;62336;-26.094;27.994;2022-12-18T08:31:36;7;7;
73973;PMS5003;62336;-26.094;27.994;2022-12-18T08:34:01;8;5;
73973;PMS5003;62336;-26.094;27.994;2022-12-18T08:36:27;7;7;
73973;PMS5003;62336;-26.094;27.994;2022-12-18T08:38:53;5;5;
73973;PMS5003;62336;-26.094;27.994;2022-12-18T08:41:19;6;5;
73973;PMS5003;62336;-26.094;27.994;2022-12-18T08:43:44;5;5;
73973;PMS5003;62336;-26.094;27.994;2022-12-18T08:46:09;6;6;
73973;PMS5003;62336;-26.094;27.994;2022-12-18T08:48:35;6;6;
73973;PMS5003;62336;-26.094;27.994;2022-12-18T08:51:01;7;6;
73973;PMS5003;62336;-26.094;27.994;2022-12-18T08:53:27;6;6;
73973;PMS5003;62336;-26.094;27.994;2022-12-18T08:55:53;5;5;
73973;PMS5003;62336;-26.094;27.994;2022-12-18T08:58:19;3;3;
73973;PMS5003;62336;-26.094;27.994;2022-12-18T09:00:44;8;6;
73973;PMS5003;62336;-26.094;27.994;2022-12-18T09:03:11;3;3;
73973;PMS5003;62336;-26.094;27.994;2022-12-18T09:05:36;5;5;
73973;PMS5003;62336;-26.094;27.994;2022-12-18T09:08:01;1;1;
73973;PMS5003;62336;-26.094;27.994;2022-12-18T09:10:27;4;4;
73973;PMS5003;62336;-26.094;27.994;2022-12-18T09:12:53;2;2;
73973;PMS5003;62336;-26.094;27.994;2022-12-18T09:15:19;4;4;
73973;PMS5003;62336;-26.094;27.994;2022-12-18T09:17:44;3;3;
73973;PMS5003;62336;-26.094;27.994;2022-12-18T09:20:11;5;4;
73973;PMS5003;62336;-26.094;27.994;2022-12-18T09:22:36;3;3;
73973;PMS5003;62336;-26.094;27.994;2022-12-18T09:27:28;4;4;
73973;PMS5003;62336;-26.094;27.994;2022-12-18T09:29:54;4;4;
73973;PMS5003;62336;-26.094;27.994;2022-12-18T09:32:19;17;15;
73973;PMS5003;62336;-26.094;27.994;2022-12-18T09:34:44;4;4;
73973;PMS5003;62336;-26.094;27.994;2022-12-18T09:37:10;3;3;
73973;PMS5003;62336;-26.094;27.994;2022-12-18T09:39:35;4;4;
73973;PMS5003;62336;-26.094;27.994;2022-12-18T09:42:02;4;4;
73973;PMS5003;62336;-26.094;27.994;2022-12-18T09:44:28;4;4;
73973;PMS5003;62336;-26.094;27.994;2022-12-18T09:46:57;5;5;
73973;PMS5003;62336;-26.094;27.994;2022-12-18T09:49:20;6;5;
73973;PMS5003;62336;-26.094;27.994;2022-12-18T09:51:46;4;4;
73973;PMS5003;62336;-26.094;27.994;2022-12-18T09:54:12;4;2;
73973;PMS5003;62336;-26.094;27.994;2022-12-18T09:56:38;5;4;
73973;PMS5003;62336;-26.094;27.994;2022-12-18T09:59:03;4;4;
73973;PMS5003;62336;-26.094;27.994;2022-12-18T10:01:29;5;5;
73973;PMS5003;62336;-26.094;27.994;2022-12-18T10:03:54;5;5;
73973;PMS5003;62336;-26.094;27.994;2022-12-18T10:06:21;3;3;
73973;PMS5003;62336;-26.094;27.994;2022-12-18T10:08:48;4;3;
73973;PMS5003;62336;-26.094;27.994;2022-12-18T10:10:35;3;3;
73973;PMS5003;62336;-26.094;27.994;2022-12-18T10:12:59;5;5;
73973;PMS5003;62336;-26.094;27.994;2022-12-18T10:15:23;5;5;
73973;PMS5003;62336;-26.094;27.994;2022-12-18T10:17:50;4;4;
73973;PMS5003;62336;-26.094;27.994;2022-12-18T10:20:15;7;5;
73973;PMS5003;62336;-26.094;27.994;2022-12-18T10:22:43;3;2;
73973;PMS5003;62336;-26.094;27.994;2022-12-18T10:25:05;5;4;
73973;PMS5003;62336;-26.094;27.994;2022-12-18T10:27:30;5;5;
73973;PMS5003;62336;-26.094;27.994;2022-12-18T10:29:56;5;4;
73973;PMS5003;62336;-26.094;27.994;2022-12-18T10:32:22;3;3;
73973;PMS5003;62336;-26.094;27.994;2022-12-18T10:34:48;2;2;
73973;PMS5003;62336;-26.094;27.994;2022-12-18T10:37:15;4;4;
73973;PMS5003;62336;-26.094;27.994;2022-12-18T10:39:40;3;3;
73973;PMS5003;62336;-26.094;27.994;2022-12-18T10:42:09;3;3;
73973;PMS5003;62336;-26.094;27.994;2022-12-18T10:44:31;3;3;
73973;PMS5003;62336;-26.094;27.994;2022-12-18T10:49:23;2;2;
73973;PMS5003;62336;-26.094;27.994;2022-12-18T10:51:47;2;2;
73973;PMS5003;62336;-26.094;27.994;2022-12-18T10:54:14;5;5;
73973;PMS5003;62336;-26.094;27.994;2022-12-18T10:56:37;4;4;
73973;PMS5003;62336;-26.094;27.994;2022-12-18T10:59:03;3;3;
73973;PMS5003;62336;-26.094;27.994;2022-12-18T11:01:27;4;3;
73973;PMS5003;62336;-26.094;27.994;2022-12-18T11:06:20;2;2;
73973;PMS5003;62336;-26.094;27.994;2022-12-18T11:08:46;3;3;
73973;PMS5003;62336;-26.094;27.994;2022-12-18T11:13:34;2;2;
73973;PMS5003;62336;-26.094;27.994;2022-12-18T11:15:59;4;3;
73973;PMS5003;62336;-26.094;27.994;2022-12-18T11:18:27;3;3;
73973;PMS5003;62336;-26.094;27.994;2022-12-18T11:20:52;3;3;
73973;PMS5003;62336;-26.094;27.994;2022-12-18T11:23:18;3;3;
73973;PMS5003;62336;-26.094;27.994;2022-12-18T11:25:49;4;4;
73973;PMS5003;62336;-26.094;27.994;2022-12-18T11:30:34;3;2;
73973;PMS5003;62336;-26.094;27.994;2022-12-18T11:33:00;5;5;
73973;PMS5003;62336;-26.094;27.994;2022-12-18T11:35:27;3;3;
73973;PMS5003;62336;-26.094;27.994;2022-12-18T11:37:52;4;4;
73973;PMS5003;62336;-26.094;27.994;2022-12-18T11:40:17;3;3;
73973;PMS5003;62336;-26.094;27.994;2022-12-18T11:42:44;5;4;
73973;PMS5003;62336;-26.094;27.994;2022-12-18T11:45:18;3;3;
73973;PMS5003;62336;-26.094;27.994;2022-12-18T11:47:37;2;2;
73973;PMS5003;62336;-26.094;27.994;2022-12-18T11:50:00;2;2;
73973;PMS5003;62336;-26.094;27.994;2022-12-18T11:52:26;1;1;
73973;PMS5003;62336;-26.094;27.994;2022-12-18T11:54:51;4;2;
73973;PMS5003;62336;-26.094;27.994;2022-12-18T11:57:18;3;3;
73973;PMS5003;62336;-26.094;27.994;2022-12-18T11:59:44;4;3;
73973;PMS5003;62336;-26.094;27.994;2022-12-18T12:04:39;0;0;
73973;PMS5003;62336;-26.094;27.994;2022-12-18T12:07:01;2;2;
73973;PMS5003;62336;-26.094;27.994;2022-12-18T12:09:26;3;3;
73973;PMS5003;62336;-26.094;27.994;2022-12-18T12:11:52;3;2;
73973;PMS5003;62336;-26.094;27.994;2022-12-18T12:14:20;4;3;
73973;PMS5003;62336;-26.094;27.994;2022-12-18T12:16:43;2;1;
73973;PMS5003;62336;-26.094;27.994;2022-12-18T12:19:12;2;2;
73973;PMS5003;62336;-26.094;27.994;2022-12-18T12:21:34;3;3;
73973;PMS5003;62336;-26.094;27.994;2022-12-18T12:24:00;3;3;
73973;PMS5003;62336;-26.094;27.994;2022-12-18T12:26:26;1;1;
73973;PMS5003;62336;-26.094;27.994;2022-12-18T12:28:54;3;3;
73973;PMS5003;62336;-26.094;27.994;2022-12-18T12:31:16;2;2;
73973;PMS5003;62336;-26.094;27.994;2022-12-18T12:33:40;3;3;
73973;PMS5003;62336;-26.094;27.994;2022-12-18T12:36:07;3;3;
73973;PMS5003;62336;-26.094;27.994;2022-12-18T12:38:33;3;3;
73973;PMS5003;62336;-26.094;27.994;2022-12-18T12:40:57;2;2;
73973;PMS5003;62336;-26.094;27.994;2022-12-18T12:43:24;2;2;
73973;PMS5003;62336;-26.094;27.994;2022-12-18T12:45:48;1;1;
73973;PMS5003;62336;-26.094;27.994;2022-12-18T12:48:16;4;4;
73973;PMS5003;62336;-26.094;27.994;2022-12-18T12:50:38;3;3;
73973;PMS5003;62336;-26.094;27.994;2022-12-18T12:53:05;2;2;
73973;PMS5003;62336;-26.094;27.994;2022-12-18T12:55:28;1;1;
73973;PMS5003;62336;-26.094;27.994;2022-12-18T12:57:57;2;2;
73973;PMS5003;62336;-26.094;27.994;2022-12-18T13:00:19;1;1;
73973;PMS5003;62336;-26.094;27.994;2022-12-18T13:02:46;3;3;
73973;PMS5003;62336;-26.094;27.994;2022-12-18T13:05:12;3;3;
73973;PMS5003;62336;-26.094;27.994;2022-12-18T13:07:36;3;3;
73973;PMS5003;62336;-26.094;27.994;2022-12-18T13:12:26;7;4;
73973;PMS5003;62336;-26.094;27.994;2022-12-18T13:14:51;4;4;
73973;PMS5003;62336;-26.094;27.994;2022-12-18T13:17:21;5;5;
73973;PMS5003;62336;-26.094;27.994;2022-12-18T13:19:41;5;5;
73973;PMS5003;62336;-26.094;27.994;2022-12-18T13:22:12;5;5;
73973;PMS5003;62336;-26.094;27.994;2022-12-18T13:24:31;4;4;
73973;PMS5003;62336;-26.094;27.994;2022-12-18T13:26:56;5;5;
73973;PMS5003;62336;-26.094;27.994;2022-12-18T13:34:15;6;6;
73973;PMS5003;62336;-26.094;27.994;2022-12-18T13:36:37;6;6;
73973;PMS5003;62336;-26.094;27.994;2022-12-18T13:39:15;5;5;
73973;PMS5003;62336;-26.094;27.994;2022-12-18T13:41:27;5;5;
73973;PMS5003;62336;-26.094;27.994;2022-12-18T13:43:53;4;4;
73973;PMS5003;62336;-26.094;27.994;2022-12-18T13:46:20;5;5;
73973;PMS5003;62336;-26.094;27.994;2022-12-18T13:48:50;4;4;
73973;PMS5003;62336;-26.094;27.994;2022-12-18T13:51:11;4;4;
73973;PMS5003;62336;-26.094;27.994;2022-12-18T13:53:38;4;4;
73973;PMS5003;62336;-26.094;27.994;2022-12-18T13:56:03;2;2;
73973;PMS5003;62336;-26.094;27.994;2022-12-18T13:58:28;4;4;
73973;PMS5003;62336;-26.094;27.994;2022-12-18T14:00:54;3;3;
73973;PMS5003;62336;-26.094;27.994;2022-12-18T14:03:21;3;3;
73973;PMS5003;62336;-26.094;27.994;2022-12-18T14:05:45;4;4;
73973;PMS5003;62336;-26.094;27.994;2022-12-18T14:08:11;2;2;
73973;PMS5003;62336;-26.094;27.994;2022-12-18T14:10:35;2;2;
73973;PMS5003;62336;-26.094;27.994;2022-12-18T14:13:03;3;2;
73973;PMS5003;62336;-26.094;27.994;2022-12-18T14:15:29;3;3;
73973;PMS5003;62336;-26.094;27.994;2022-12-18T14:17:50;4;4;
73973;PMS5003;62336;-26.094;27.994;2022-12-18T14:20:15;3;2;
73973;PMS5003;62336;-26.094;27.994;2022-12-18T14:22:40;4;4;
73973;PMS5003;62336;-26.094;27.994;2022-12-18T14:25:10;3;3;
73973;PMS5003;62336;-26.094;27.994;2022-12-18T14:27:31;3;3;
73973;PMS5003;62336;-26.094;27.994;2022-12-18T14:29:56;3;3;
73973;PMS5003;62336;-26.094;27.994;2022-12-18T14:32:21;2;2;
73973;PMS5003;62336;-26.094;27.994;2022-12-18T14:34:47;4;4;
73973;PMS5003;62336;-26.094;27.994;2022-12-18T14:37:11;3;2;
73973;PMS5003;62336;-26.094;27.994;2022-12-18T14:39:36;4;4;
73973;PMS5003;62336;-26.094;27.994;2022-12-18T14:42:01;5;5;
73973;PMS5003;62336;-26.094;27.994;2022-12-18T14:44:27;4;4;
73973;PMS5003;62336;-26.094;27.994;2022-12-18T14:46:52;3;3;
73973;PMS5003;62336;-26.094;27.994;2022-12-18T14:49:19;3;3;
73973;PMS5003;62336;-26.094;27.994;2022-12-18T14:51:44;4;4;
73973;PMS5003;62336;-26.094;27.994;2022-12-18T14:54:14;3;3;
73973;PMS5003;62336;-26.094;27.994;2022-12-18T14:56:35;4;4;
73973;PMS5003;62336;-26.094;27.994;2022-12-18T14:59:01;3;3;
73973;PMS5003;62336;-26.094;27.994;2022-12-18T15:01:27;4;4;
73973;PMS5003;62336;-26.094;27.994;2022-12-18T15:03:53;3;3;
73973;PMS5003;62336;-26.094;27.994;2022-12-18T15:06:23;5;4;
73973;PMS5003;62336;-26.094;27.994;2022-12-18T15:08:44;3;2;
73973;PMS5003;62336;-26.094;27.994;2022-12-18T15:13:35;3;2;
73973;PMS5003;62336;-26.094;27.994;2022-12-18T15:16:00;5;4;
73973;PMS5003;62336;-26.094;27.994;2022-12-18T15:18:28;4;4;
73973;PMS5003;62336;-26.094;27.994;2022-12-18T15:20:53;5;5;
73973;PMS5003;62336;-26.094;27.994;2022-12-18T15:23:19;5;5;
73973;PMS5003;62336;-26.094;27.994;2022-12-18T15:25:44;4;4;
73973;PMS5003;62336;-26.094;27.994;2022-12-18T15:30:33;3;3;
73973;PMS5003;62336;-26.094;27.994;2022-12-18T15:35:24;4;4;
73973;PMS5003;62336;-26.094;27.994;2022-12-18T15:37:50;4;3;
73973;PMS5003;62336;-26.094;27.994;2022-12-18T15:40:17;4;4;
73973;PMS5003;62336;-26.094;27.994;2022-12-18T15:42:42;3;3;
73973;PMS5003;62336;-26.094;27.994;2022-12-18T15:45:11;3;3;
73973;PMS5003;62336;-26.094;27.994;2022-12-18T15:47:33;4;3;
73973;PMS5003;62336;-26.094;27.994;2022-12-18T15:49:58;3;2;
73973;PMS5003;62336;-26.094;27.994;2022-12-18T15:52:23;4;4;
73973;PMS5003;62336;-26.094;27.994;2022-12-18T15:54:48;3;3;
73973;PMS5003;62336;-26.094;27.994;2022-12-18T15:57:13;4;4;
73973;PMS5003;62336;-26.094;27.994;2022-12-18T15:59:39;3;3;
73973;PMS5003;62336;-26.094;27.994;2022-12-18T16:02:07;6;6;
73973;PMS5003;62336;-26.094;27.994;2022-12-18T16:04:30;7;5;
73973;PMS5003;62336;-26.094;27.994;2022-12-18T16:08:57;1;1;
73973;PMS5003;62336;-26.094;27.994;2022-12-18T16:11:23;3;3;
73973;PMS5003;62336;-26.094;27.994;2022-12-18T16:13:48;5;5;
73973;PMS5003;62336;-26.094;27.994;2022-12-18T16:16:13;9;9;
73973;PMS5003;62336;-26.094;27.994;2022-12-18T16:18:39;8;6;
73973;PMS5003;62336;-26.094;27.994;2022-12-18T16:21:05;4;4;
73973;PMS5003;62336;-26.094;27.994;2022-12-18T16:23:31;4;3;
73973;PMS5003;62336;-26.094;27.994;2022-12-18T16:25:57;6;5;
73973;PMS5003;62336;-26.094;27.994;2022-12-18T16:28:21;5;5;
73973;PMS5003;62336;-26.094;27.994;2022-12-18T16:30:48;5;5;
73973;PMS5003;62336;-26.094;27.994;2022-12-18T16:33:13;5;5;
73973;PMS5003;62336;-26.094;27.994;2022-12-18T16:35:39;5;5;
73973;PMS5003;62336;-26.094;27.994;2022-12-18T16:38:04;6;6;
73973;PMS5003;62336;-26.094;27.994;2022-12-18T16:40:31;5;5;
73973;PMS5003;62336;-26.094;27.994;2022-12-18T16:42:56;7;7;
73973;PMS5003;62336;-26.094;27.994;2022-12-18T16:45:22;6;6;
73973;PMS5003;62336;-26.094;27.994;2022-12-18T16:47:48;7;7;
73973;PMS5003;62336;-26.094;27.994;2022-12-18T16:50:13;7;6;
73973;PMS5003;62336;-26.094;27.994;2022-12-18T16:52:39;5;5;
73973;PMS5003;62336;-26.094;27.994;2022-12-18T16:55:05;6;6;
73973;PMS5003;62336;-26.094;27.994;2022-12-18T16:57:31;8;6;
73973;PMS5003;62336;-26.094;27.994;2022-12-18T16:59:57;9;8;
73973;PMS5003;62336;-26.094;27.994;2022-12-18T17:02:23;7;7;
73973;PMS5003;62336;-26.094;27.994;2022-12-18T17:04:49;8;8;
73973;PMS5003;62336;-26.094;27.994;2022-12-18T17:07:14;8;7;
73973;PMS5003;62336;-26.094;27.994;2022-12-18T17:09:40;7;7;
73973;PMS5003;62336;-26.094;27.994;2022-12-18T17:12:07;8;8;
73973;PMS5003;62336;-26.094;27.994;2022-12-18T17:14:31;8;8;
73973;PMS5003;62336;-26.094;27.994;2022-12-18T17:16:57;7;7;
73973;PMS5003;62336;-26.094;27.994;2022-12-18T17:19:23;10;9;
73973;PMS5003;62336;-26.094;27.994;2022-12-18T17:21:50;11;9;
73973;PMS5003;62336;-26.094;27.994;2022-12-18T17:24:14;11;8;
73973;PMS5003;62336;-26.094;27.994;2022-12-18T17:26:42;10;9;
73973;PMS5003;62336;-26.094;27.994;2022-12-18T17:29:07;11;10;
73973;PMS5003;62336;-26.094;27.994;2022-12-18T17:31:32;9;8;
73973;PMS5003;62336;-26.094;27.994;2022-12-18T17:33:58;12;11;
73973;PMS5003;62336;-26.094;27.994;2022-12-18T17:36:23;10;10;
73973;PMS5003;62336;-26.094;27.994;2022-12-18T17:38:50;9;8;
73973;PMS5003;62336;-26.094;27.994;2022-12-18T17:41:14;10;9;
73973;PMS5003;62336;-26.094;27.994;2022-12-18T17:43:40;8;8;
73973;PMS5003;62336;-26.094;27.994;2022-12-18T17:46:06;11;11;
73973;PMS5003;62336;-26.094;27.994;2022-12-18T17:48:32;15;13;
73973;PMS5003;62336;-26.094;27.994;2022-12-18T17:50:59;10;9;
73973;PMS5003;62336;-26.094;27.994;2022-12-18T17:53:23;13;12;
73973;PMS5003;62336;-26.094;27.994;2022-12-18T17:55:52;11;10;
73973;PMS5003;62336;-26.094;27.994;2022-12-18T17:58:15;10;10;
73973;PMS5003;62336;-26.094;27.994;2022-12-18T18:00:40;10;10;
73973;PMS5003;62336;-26.094;27.994;2022-12-18T18:03:06;13;12;
73973;PMS5003;62336;-26.094;27.994;2022-12-18T18:05:32;9;8;
73973;PMS5003;62336;-26.094;27.994;2022-12-18T18:07:57;9;9;
73973;PMS5003;62336;-26.094;27.994;2022-12-18T18:10:23;7;7;
73973;PMS5003;62336;-26.094;27.994;2022-12-18T18:12:50;6;5;
73973;PMS5003;62336;-26.094;27.994;2022-12-18T18:15:15;4;4;
73973;PMS5003;62336;-26.094;27.994;2022-12-18T18:17:41;4;4;
73973;PMS5003;62336;-26.094;27.994;2022-12-18T18:20:07;3;3;
73973;PMS5003;62336;-26.094;27.994;2022-12-18T18:22:32;3;3;
73973;PMS5003;62336;-26.094;27.994;2022-12-18T18:24:58;3;3;
73973;PMS5003;62336;-26.094;27.994;2022-12-18T18:27:23;3;3;
73973;PMS5003;62336;-26.094;27.994;2022-12-18T18:29:49;3;3;
73973;PMS5003;62336;-26.094;27.994;2022-12-18T18:32:15;4;3;
73973;PMS5003;62336;-26.094;27.994;2022-12-18T18:34:41;4;3;
73973;PMS5003;62336;-26.094;27.994;2022-12-18T18:37:07;4;4;
73973;PMS5003;62336;-26.094;27.994;2022-12-18T18:39:32;3;3;